Time;durP1;ratioP1;P1;durP2;ratioP2;P2;SDS_P1;SDS_P2;PMS_P1;PMS_P2;Temp;Humidity;BMP_temperature;BMP_pressure;BME280_temperature;BME280_humidity;BME280_pressure;Samples;Min_cycle;Max_cycle;Signal;HPM_P1;HPM_P2
2022/06/30 00:25:34;;;;;;;;;;;;;;;;;;;;;
2022/06/30 01:15:38;;;;;;;;;;;;;;;;;;;;;
2022/06/30 01:18:52;;;;;;;;;;;;;;;;;;;;;
2022/06/30 03:25:55;;;;;;;;;;;;;;;;;;;;;
2022/06/30 03:39:55;;;;;;;;;;;;;;;;;;;;;
2022/06/30 03:42:48;;;;;;;;;;;;;;;;;;;;;
2022/06/30 03:52:45;;;;;;;;;;;;;;;;;;;;;
2022/06/30 04:02:46;;;;;;;;;;;;;;;;;;;;;
2022/06/30 04:06:13;;;;;;;;;;;;;;;;;;;;;
2022/06/30 04:09:29;;;;;;;;;;;;;;;;;;;;;
2022/06/30 04:19:30;;;;;;;;;;;;;;;;;;;;;
2022/06/30 04:26:10;;;;;;;;;;;;;;;;;;;;;
2022/06/30 05:09:55;;;;;;;;;3.25;2.75;;;;;16.67;66.08;101001.69;6343929;22;46333;-90
2022/06/30 05:12:24;;;;;;;;;3.75;3.00;;;;;16.75;65.36;101003.94;6290152;22;45282;-85
2022/06/30 05:14:49;;;;;;;;;3.25;2.25;;;;;16.87;64.91;101003.34;6318339;22;45426;-86
2022/06/30 05:17:14;;;;;;;;;3.25;3.25;;;;;16.91;65.60;100991.75;6289229;22;58423;-87
2022/06/30 05:19:43;;;;;;;;;3.00;3.00;;;;;16.90;64.53;101002.34;6290441;22;46769;-87
2022/06/30 05:22:08;;;;;;;;;4.00;3.00;;;;;16.85;65.05;101007.00;6342987;22;56884;-89
2022/06/30 05:27:17;;;;;;;;;5.00;2.00;;;;;16.85;64.92;100989.44;6321114;22;45341;-85
2022/06/30 05:29:43;;;;;;;;;2.00;2.00;;;;;16.87;64.65;100989.38;6343812;22;45245;-88
2022/06/30 05:32:08;;;;;;;;;3.00;3.00;;;;;16.91;65.07;100998.78;6344593;22;45226;-89
2022/06/30 05:34:34;;;;;;;;;3.50;3.50;;;;;16.94;64.88;101009.16;6290058;22;50953;-87
2022/06/30 05:36:59;;;;;;;;;3.25;2.00;;;;;16.99;64.32;101029.03;6316853;22;45545;-88
2022/06/30 05:39:25;;;;;;;;;4.00;2.50;;;;;17.05;63.93;101027.00;6315725;22;46136;-85
2022/06/30 05:41:50;;;;;;;;;4.00;3.00;;;;;17.08;63.69;101025.06;6316322;22;45476;-87
2022/06/30 05:44:15;;;;;;;;;3.00;3.00;;;;;17.16;64.13;101019.41;6315732;22;57978;-89
2022/06/30 05:46:41;;;;;;;;;3.00;3.00;;;;;17.24;64.14;101021.66;6289197;22;54295;-85
2022/06/30 05:49:08;;;;;;;;;4.00;2.00;;;;;17.31;63.50;101029.16;6310955;22;64936;-86
2022/06/30 05:51:37;;;;;;;;;2.00;2.00;;;;;17.35;63.48;101027.22;6309096;22;45478;-88
2022/06/30 05:54:02;;;;;;;;;4.00;2.50;;;;;17.44;63.64;101031.09;6308795;22;45279;-92
2022/06/30 05:56:28;;;;;;;;;3.75;3.00;;;;;17.54;63.97;101029.69;6310533;22;45540;-90
2022/06/30 05:58:56;;;;;;;;;3.00;1.00;;;;;17.57;63.29;101027.75;6284031;22;47206;-91
2022/06/30 06:01:22;;;;;;;;;5.25;3.00;;;;;17.59;63.67;101025.88;6284860;22;45817;-91
2022/06/30 06:04:28;;;;;;;;;4.00;2.75;;;;;17.61;63.37;101031.09;6288708;22;45152;-96
2022/06/30 06:06:53;;;;;;;;;3.25;3.00;;;;;17.60;63.57;101030.22;6311686;22;45168;-91
2022/06/30 06:09:19;;;;;;;;;3.00;2.00;;;;;17.59;62.39;101035.59;6283923;22;46932;-90
2022/06/30 06:11:44;;;;;;;;;3.50;2.00;;;;;17.55;62.31;101036.66;6309149;22;45184;-86
2022/06/30 06:14:13;;;;;;;;;4.00;2.00;;;;;17.51;62.78;101038.59;6308550;22;48214;-86
2022/06/30 06:17:04;;;;;;;;;2.00;2.00;;;;;17.60;63.12;101021.47;6309140;22;45487;-94
2022/06/30 06:22:11;;;;;;;;;4.00;3.00;;;;;17.76;63.13;101042.56;6339208;22;45219;-90
2022/06/30 06:31:20;;;;;;;;;3.00;3.00;;;;;17.67;63.15;101030.75;6091070;23;45379;-93
2022/06/30 06:38:44;;;;;;;;;2.50;2.50;;;;;17.73;62.89;101035.66;6003268;23;45209;-94
2022/06/30 06:41:15;;;;;;;;;3.00;3.00;;;;;17.89;63.42;101041.00;5948488;23;45390;-93
2022/06/30 06:43:41;;;;;;;;;3.75;3.75;;;;;17.86;63.44;101051.69;5925187;23;45433;-93
2022/06/30 06:46:16;;;;;;;;;;;;;;;;;;;;;
2022/06/30 06:48:48;;;;;;;;;6.25;2.75;;;;;17.74;63.14;101049.69;5924873;23;67587;-93
2022/06/30 06:51:13;;;;;;;;;2.00;2.00;;;;;17.69;63.35;101062.25;5943075;23;45442;-92
2022/06/30 06:53:39;;;;;;;;;8.00;3.25;;;;;17.61;62.36;101063.50;5897344;24;45418;-92
2022/06/30 06:56:05;;;;;;;;;3.00;3.00;;;;;17.56;63.14;101065.53;5897450;24;45320;-93
2022/06/30 06:58:30;;;;;;;;;7.75;4.00;;;;;17.52;63.95;101058.72;5896553;24;45299;-91
2022/06/30 07:00:56;;;;;;;;;4.50;2.00;;;;;17.46;63.99;101063.44;5897017;24;45348;-92
2022/06/30 07:03:22;;;;;;;;;5.25;3.00;;;;;17.42;63.73;101081.19;5921201;23;46897;-90
2022/06/30 07:05:47;;;;;;;;;3.00;3.00;;;;;17.42;64.27;101081.19;5996469;23;45425;-90
2022/06/30 07:08:15;;;;;;;;;3.25;3.00;;;;;17.41;64.24;101085.59;6074852;23;45386;-86
2022/06/30 07:10:40;;;;;;;;;4.50;3.00;;;;;17.42;65.16;101102.22;6135267;23;45434;-89
2022/06/30 07:13:06;;;;;;;;;5.25;2.00;;;;;17.38;66.49;101093.69;6197726;22;46326;-86
2022/06/30 07:15:31;;;;;;;;;5.00;3.50;;;;;17.35;65.97;101103.50;6283185;22;45176;-86
2022/06/30 07:17:58;;;;;;;;;4.75;3.50;;;;;17.22;66.31;101090.97;6283500;22;49047;-88
2022/06/30 07:20:27;;;;;;;;;4.50;3.25;;;;;17.17;66.52;101094.75;6309545;22;45461;-89
2022/06/30 07:22:55;;;;;;;;;4.00;4.00;;;;;17.13;66.86;101088.81;6310683;22;45511;-89
2022/06/30 07:25:21;;;;;;;;;4.75;3.75;;;;;17.09;66.94;101089.06;6282583;22;59042;-86
2022/06/30 07:27:50;;;;;;;;;5.00;4.00;;;;;17.08;67.95;101087.34;6284240;22;45407;-90
2022/06/30 07:30:15;;;;;;;;;5.75;3.75;;;;;17.03;67.85;101091.06;6338167;22;45112;-93
2022/06/30 07:32:41;;;;;;;;;3.50;3.25;;;;;16.96;68.87;101094.94;6310565;22;46279;-90
2022/06/30 07:35:07;;;;;;;;;3.25;3.25;;;;;16.96;68.29;101094.09;6309634;22;45317;-87
2022/06/30 07:37:39;;;;;;;;;5.00;3.00;;;;;16.94;68.19;101088.91;6309639;22;45353;-92
2022/06/30 07:40:31;;;;;;;;;5.75;4.75;;;;;16.87;69.45;101089.28;6340296;22;45119;-92
2022/06/30 07:45:23;;;;;;;;;4.00;3.00;;;;;16.86;69.38;101083.16;6301890;22;71765;-90
2022/06/30 07:47:49;;;;;;;;;4.75;3.50;;;;;16.86;68.77;101084.94;6280485;22;45327;-91
2022/06/30 07:50:17;;;;;;;;;8.00;4.00;;;;;16.90;69.55;101083.84;6306175;22;45409;-89
2022/06/30 07:52:44;;;;;;;;;4.25;3.75;;;;;16.91;69.98;101088.19;6306804;22;47218;-90
2022/06/30 07:55:12;;;;;;;;;6.00;4.00;;;;;16.89;69.72;101087.41;6308155;22;45703;-91
2022/06/30 08:02:11;;;;;;;;;2.25;2.00;;;;;16.69;69.99;101099.72;6182830;23;45232;-92
2022/06/30 08:05:00;;;;;;;;;4.00;4.00;;;;;16.47;69.81;101088.56;6063244;23;45430;-92
2022/06/30 08:07:25;;;;;;;;;2.00;2.00;;;;;16.38;69.72;101089.84;6009545;23;45245;-91
2022/06/30 08:09:52;;;;;;;;;2.50;2.00;;;;;16.30;69.77;101098.09;6010514;23;45281;-95
2022/06/30 08:20:01;;;;;;;;;3.75;3.75;;;;;16.12;71.11;101078.81;5970566;23;45366;-92
2022/06/30 08:23:54;;;;;;;;;4.50;2.75;;;;;16.13;70.95;101082.28;5938344;23;45416;-92
2022/06/30 08:56:53;;;;;;;;;2.00;2.00;;;;;16.24;69.63;101059.81;6148653;23;45664;-94
2022/06/30 08:59:39;;;;;;;;;;;;;;;;;;;;;
2022/06/30 09:02:05;;;;;;;;;4.75;2.25;;;;;16.25;70.33;101044.91;6132280;23;70580;-94
2022/06/30 09:05:32;;;;;;;;;;;;;;;;;;;;;
2022/06/30 09:08:05;;;;;;;;;4.75;2.25;;;;;16.35;70.68;101040.09;6071118;23;45191;-93
2022/06/30 09:19:40;;;;;;;;;4.00;1.00;;;;;16.27;69.35;101024.69;6177267;22;45606;-91
2022/06/30 09:30:36;;;;;;;;;4.50;1.75;;;;;16.32;69.87;101048.09;5988075;23;46345;-93
2022/06/30 09:33:17;;;;;;;;;6.00;2.50;;;;;16.23;69.54;101047.63;5922607;23;45916;-96
2022/06/30 10:09:14;;;;;;;;;2.00;2.00;;;;;16.05;71.15;101074.75;6128071;23;45234;-95
2022/06/30 10:35:48;;;;;;;;;1.00;1.00;;;;;15.73;71.68;101116.41;6220652;22;46313;-91
2022/06/30 10:38:23;;;;;;;;;2.00;2.00;;;;;15.65;73.09;101111.47;6229242;22;45408;-89
2022/06/30 10:47:57;;;;;;;;;3.75;2.00;;;;;15.71;72.86;101114.75;6166407;23;45410;-92
2022/06/30 10:50:52;;;;;;;;;5.50;2.00;;;;;15.79;73.48;101118.78;6254800;22;45356;-90
2022/06/30 10:53:36;;;;;;;;;3.00;2.00;;;;;15.91;73.48;101127.03;6235299;22;45451;-90
2022/06/30 10:56:04;;;;;;;;;2.75;2.50;;;;;16.07;74.31;101120.16;6253916;22;48551;-90
2022/06/30 10:58:58;;;;;;;;;3.00;3.00;;;;;16.20;73.55;101137.06;6280750;22;45408;-93
2022/06/30 11:01:24;;;;;;;;;6.75;5.00;;;;;16.25;72.82;101147.34;6246934;22;45260;-90
2022/06/30 11:03:52;;;;;;;;;6.25;3.00;;;;;16.29;72.29;101148.06;6246958;22;57700;-89
2022/06/30 11:06:17;;;;;;;;;2.00;2.00;;;;;16.26;72.52;101141.19;6274247;22;45657;-90
2022/06/30 11:09:01;;;;;;;;;4.00;2.50;;;;;16.35;73.27;101146.00;6246852;22;51510;-95
2022/06/30 12:11:32;;;;;;;;;;;;;;;;;;;;;
2022/06/30 12:14:30;;;;;;;;;;;;;;;;;;;;;
2022/06/30 12:16:58;;;;;;;;;1.00;1.00;;;;;20.72;62.23;101067.16;6100430;23;72814;-94
2022/06/30 12:23:13;;;;;;;;;2.50;1.00;;;;;20.96;56.84;101107.84;6006625;23;45260;-95
2022/06/30 12:25:40;;;;;;;;;1.25;1.00;;;;;20.59;55.24;101125.28;5981177;23;46593;-93
2022/06/30 12:28:06;;;;;;;;;4.50;1.00;;;;;20.04;56.07;101140.19;5980961;23;46316;-91
2022/06/30 12:30:39;;;;;;;;;0.00;0.00;;;;;19.46;58.53;101155.13;6004898;23;45547;-91
2022/06/30 12:33:09;;;;;;;;;1.25;0.75;;;;;18.99;58.29;101150.88;5980519;23;45538;-93
2022/06/30 12:35:48;;;;;;;;;0.00;0.00;;;;;18.61;61.43;101156.50;5981888;23;47105;-94
2022/06/30 12:38:30;;;;;;;;;0.00;0.00;;;;;18.34;59.94;101150.03;5983035;23;45706;-94
2022/06/30 12:41:37;;;;;;;;;;;;;;;;;;;;;
2022/06/30 12:44:51;;;;;;;;;;;;;;;;;;;;;
2022/06/30 12:48:03;;;;;;;;;0.75;0.00;;;;;18.11;63.58;101106.50;5938363;23;75691;-94
2022/06/30 12:50:58;;;;;;;;;1.00;0.00;;;;;18.20;61.96;101120.94;5947071;23;45454;-94
2022/06/30 12:53:45;;;;;;;;;;;;;;;;;;;;;
2022/06/30 13:09:42;;;;;;;;;1.00;1.00;;;;;18.55;62.24;101131.31;5937477;23;45573;-89
2022/06/30 13:12:08;;;;;;;;;0.00;0.00;;;;;18.72;61.58;101120.69;5923874;23;46440;-91
2022/06/30 13:18:07;;;;;;;;;1.75;0.75;;;;;19.23;59.26;101145.97;5928749;23;45408;-91
2022/06/30 13:21:17;;;;;;;;;2.00;1.00;;;;;19.28;58.69;101136.00;5903134;23;45206;-92
2022/06/30 13:27:54;;;;;;;;;1.00;1.00;;;;;19.29;57.78;101142.94;5969580;23;45383;-92
2022/06/30 13:43:45;;;;;;;;;;;;;;;;;;;;;
2022/06/30 13:46:23;;;;;;;;;;;;;;;;;;;;;
2022/06/30 13:49:32;;;;;;;;;3.00;1.00;;;;;19.89;57.32;101153.44;5898771;24;75100;-92
2022/06/30 13:52:17;;;;;;;;;1.75;1.75;;;;;20.37;56.29;101145.16;5918675;24;45874;-93
2022/06/30 13:54:45;;;;;;;;;3.50;1.00;;;;;20.86;54.98;101135.88;5899699;24;45283;-91
2022/06/30 13:57:13;;;;;;;;;2.00;1.00;;;;;21.49;55.71;101126.41;5876814;24;45310;-91
2022/06/30 13:59:41;;;;;;;;;1.25;1.00;;;;;22.29;52.55;101133.19;5877073;24;46786;-90
2022/06/30 14:02:12;;;;;;;;;2.00;0.75;;;;;22.70;51.58;101143.44;5899034;24;45698;-90
2022/06/30 14:04:42;;;;;;;;;1.50;0.25;;;;;22.80;48.03;101139.13;5925402;23;45338;-92
2022/06/30 14:07:17;;;;;;;;;1.00;1.00;;;;;22.71;49.04;101137.16;5978432;23;45284;-92
2022/06/30 14:09:56;;;;;;;;;1.00;1.00;;;;;22.65;49.53;101134.97;6015090;23;46425;-91
2022/06/30 14:12:36;;;;;;;;;1.00;1.00;;;;;22.51;48.92;101143.09;6037758;23;45357;-91
2022/06/30 14:15:31;;;;;;;;;1.00;1.00;;;;;22.57;48.99;101137.34;6014092;23;45410;-92
2022/06/30 14:17:56;;;;;;;;;1.75;1.75;;;;;22.47;49.25;101133.66;6117609;23;45446;-92
2022/06/30 14:20:24;;;;;;;;;2.00;2.00;;;;;22.29;49.62;101136.72;6098919;23;45408;-91
2022/06/30 14:22:57;;;;;;;;;1.00;1.00;;;;;22.20;50.13;101135.53;6096784;23;45401;-92
2022/06/30 14:25:25;;;;;;;;;2.00;2.00;;;;;21.98;49.88;101140.66;6135282;23;44797;-90
2022/06/30 14:28:03;;;;;;;;;2.00;1.50;;;;;21.76;49.73;101152.75;6131936;22;45275;-92
2022/06/30 14:30:46;;;;;;;;;4.00;1.25;;;;;21.61;49.45;101144.06;6304611;22;46512;-91
2022/06/30 14:33:38;;;;;;;;;1.00;1.00;;;;;21.40;48.99;101150.81;6280193;22;45965;-91
2022/06/30 14:36:06;;;;;;;;;0.00;0.00;;;;;21.11;50.11;101147.50;6293346;22;44751;-91
2022/06/30 14:38:44;;;;;;;;;2.25;1.00;;;;;21.03;52.09;101143.53;6304697;22;45299;-92
2022/06/30 14:41:09;;;;;;;;;2.00;1.00;;;;;21.07;51.22;101152.97;6281024;22;46877;-90
2022/06/30 14:43:41;;;;;;;;;3.00;1.00;;;;;20.96;50.29;101155.47;6309916;22;45538;-91
2022/06/30 14:46:06;;;;;;;;;2.25;2.00;;;;;20.75;50.34;101154.28;6280917;22;45330;-91
2022/06/30 14:48:38;;;;;;;;;1.75;1.00;;;;;20.53;50.45;101149.47;6255566;22;45434;-91
2022/06/30 14:51:03;;;;;;;;;1.75;1.75;;;;;20.41;51.15;101148.44;6283422;22;47065;-92
2022/06/30 14:53:34;;;;;;;;;1.00;1.00;;;;;20.43;52.34;101149.19;6282979;22;45215;-91
2022/06/30 14:56:00;;;;;;;;;0.75;0.75;;;;;20.47;52.27;101142.78;6281454;22;45780;-90
2022/06/30 14:58:31;;;;;;;;;1.00;1.00;;;;;20.56;51.40;101139.56;6278580;22;45401;-89
2022/06/30 15:00:57;;;;;;;;;0.50;0.50;;;;;20.67;50.22;101136.22;6282671;22;46357;-90
2022/06/30 15:03:42;;;;;;;;;1.00;1.00;;;;;20.72;53.09;101138.59;6255457;22;45444;-92
2022/06/30 15:06:10;;;;;;;;;3.00;1.25;;;;;20.73;51.19;101129.69;6211190;22;45390;-90
2022/06/30 15:08:44;;;;;;;;;1.50;1.00;;;;;20.82;50.89;101140.53;6190040;22;45394;-90
2022/06/30 15:11:12;;;;;;;;;1.00;1.00;;;;;20.92;51.51;101137.28;6187251;22;46434;-91
2022/06/30 15:13:40;;;;;;;;;2.50;1.00;;;;;20.93;50.16;101134.53;6208098;22;45360;-90
2022/06/30 15:16:21;;;;;;;;;3.00;1.00;;;;;20.86;49.96;101149.13;6189866;22;45313;-90
2022/06/30 15:18:47;;;;;;;;;1.00;1.00;;;;;20.88;51.83;101149.88;6220810;22;45430;-88
2022/06/30 15:24:23;;;;;;;;;3.00;1.00;;;;;21.14;49.43;101144.66;6220083;22;45466;-89
2022/06/30 15:26:58;;;;;;;;;3.75;1.00;;;;;21.24;48.99;101138.59;6223535;22;45402;-88
2022/06/30 15:29:23;;;;;;;;;3.00;1.75;;;;;21.19;48.95;101139.88;6198094;22;45397;-88
2022/06/30 15:32:19;;;;;;;;;1.50;1.50;;;;;21.10;49.87;101138.72;6198267;22;46051;-89
2022/06/30 15:34:57;;;;;;;;;1.00;1.00;;;;;21.10;49.81;101137.84;6221034;22;45332;-90
2022/06/30 15:37:41;;;;;;;;;0.00;0.00;;;;;21.18;49.67;101124.94;6170878;22;45260;-90
2022/06/30 15:40:25;;;;;;;;;;;;;;;;;;;;;
2022/06/30 15:42:58;;;;;;;;;1.00;1.00;;;;;21.49;48.23;101118.44;6210412;22;74910;-90
2022/06/30 15:45:44;;;;;;;;;0.00;0.00;;;;;21.58;48.49;101115.16;6292746;22;45408;-89
2022/06/30 15:48:19;;;;;;;;;1.00;1.00;;;;;21.69;48.94;101114.38;6292541;22;44782;-89
2022/06/30 15:50:50;;;;;;;;;3.00;1.25;;;;;21.70;48.46;101113.44;6224487;22;45429;-90
2022/06/30 15:53:27;;;;;;;;;2.00;1.00;;;;;21.62;49.40;101121.09;6209829;22;45362;-90
2022/06/30 15:56:08;;;;;;;;;1.00;1.00;;;;;21.32;48.64;101116.94;6226082;22;45371;-91
2022/06/30 16:01:26;;;;;;;;;1.00;1.00;;;;;21.00;49.31;101116.44;6189020;23;45647;-93
2022/06/30 16:03:56;;;;;;;;;1.75;1.00;;;;;20.98;49.26;101113.06;6152774;23;48092;-93
2022/06/30 16:06:30;;;;;;;;;2.75;1.75;;;;;20.97;48.91;101121.91;6155982;23;45548;-90
2022/06/30 16:09:04;;;;;;;;;1.00;1.00;;;;;20.91;51.75;101107.31;6180869;23;45483;-92
2022/06/30 16:11:29;;;;;;;;;2.75;1.00;;;;;20.85;51.94;101097.13;6181238;23;45221;-92
2022/06/30 16:14:01;;;;;;;;;1.00;1.00;;;;;20.82;51.64;101087.63;6156057;23;45290;-93
2022/06/30 16:16:42;;;;;;;;;2.00;1.75;;;;;20.85;50.91;101089.19;6156900;23;45415;-93
2022/06/30 16:19:11;;;;;;;;;1.00;1.00;;;;;20.92;51.49;101089.66;6156419;23;45370;-94
2022/06/30 16:21:36;;;;;;;;;2.00;1.00;;;;;20.95;51.63;101085.00;6156266;23;45143;-90
2022/06/30 16:24:08;;;;;;;;;2.25;2.25;;;;;20.99;50.88;101085.66;6162377;23;48100;-90
2022/06/30 16:26:33;;;;;;;;;1.00;1.00;;;;;21.03;50.96;101090.63;6158493;23;45399;-81
2022/06/30 16:28:59;;;;;;;;;1.00;1.00;;;;;21.03;52.06;101093.25;6230357;22;63279;-82
2022/06/30 16:31:24;;;;;;;;;1.75;1.75;;;;;21.01;52.08;101089.88;6212588;22;70769;-82
2022/06/30 16:33:50;;;;;;;;;1.00;1.00;;;;;20.97;52.45;101085.75;6239609;22;45336;-83
2022/06/30 16:36:17;;;;;;;;;2.00;0.00;;;;;20.93;52.79;101094.84;6239100;22;45379;-82
2022/06/30 16:38:42;;;;;;;;;1.50;1.50;;;;;20.92;52.56;101093.13;6238441;22;45316;-81
2022/06/30 16:41:08;;;;;;;;;2.00;2.00;;;;;20.92;50.86;101105.53;6276729;22;45421;-82
2022/06/30 16:43:33;;;;;;;;;0.50;0.50;;;;;20.92;51.45;101101.06;6276876;22;45281;-81
2022/06/30 16:45:59;;;;;;;;;1.00;1.00;;;;;21.02;51.27;101094.22;6302840;22;45527;-79
2022/06/30 16:48:25;;;;;;;;;1.00;1.00;;;;;21.05;49.02;101099.28;6303456;22;61692;-80
2022/06/30 16:50:50;;;;;;;;;1.00;1.00;;;;;21.05;49.84;101091.34;6303977;22;45493;-82
2022/06/30 16:53:15;;;;;;;;;2.25;1.00;;;;;21.16;49.48;101095.09;6275391;22;63184;-80
2022/06/30 16:55:41;;;;;;;;;1.00;1.00;;;;;21.25;49.40;101099.75;6275333;22;58176;-81
2022/06/30 16:58:06;;;;;;;;;2.00;1.50;;;;;21.33;50.74;101100.06;6303479;22;45230;-80
2022/06/30 17:00:31;;;;;;;;;1.00;1.00;;;;;21.40;48.80;101103.16;6275085;22;59936;-79
2022/06/30 17:02:57;;;;;;;;;1.00;1.00;;;;;21.43;49.71;101097.63;6275579;22;57521;-80
2022/06/30 17:05:23;;;;;;;;;5.00;1.00;;;;;21.41;48.14;101102.19;6303815;22;45471;-81
2022/06/30 17:07:48;;;;;;;;;2.50;2.00;;;;;21.33;50.07;101104.53;6305859;22;45301;-83
2022/06/30 17:10:14;;;;;;;;;2.00;2.00;;;;;21.26;51.02;101112.03;6278882;22;58940;-83
2022/06/30 17:13:11;;;;;;;;;1.75;1.75;;;;;21.23;52.02;101110.44;6309129;22;46419;-92
2022/06/30 17:15:49;;;;;;;;;1.50;1.25;;;;;21.24;51.66;101103.34;6295796;22;45445;-92
2022/06/30 17:18:15;;;;;;;;;1.00;1.00;;;;;21.31;51.88;101094.03;6257707;22;45289;-92
2022/06/30 17:20:43;;;;;;;;;5.00;1.00;;;;;21.31;51.19;101101.97;6313711;22;45474;-94
2022/06/30 17:23:19;;;;;;;;;;;;;;;;;;;;;
2022/06/30 17:26:15;;;;;;;;;1.00;1.00;;;;;21.20;51.35;101092.13;6185711;22;73253;-93
2022/06/30 17:29:18;;;;;;;;;;;;;;;;;;;;;
2022/06/30 17:31:55;;;;;;;;;2.50;1.00;;;;;21.08;52.07;101088.50;6287684;22;71245;-92
2022/06/30 17:35:00;;;;;;;;;;;;;;;;;;;;;
2022/06/30 17:37:35;;;;;;;;;1.25;1.25;;;;;20.86;50.92;101101.50;6234309;22;73282;-93
2022/06/30 17:40:24;;;;;;;;;1.00;1.00;;;;;20.80;51.59;101096.59;6287195;22;45277;-93
2022/06/30 17:43:08;;;;;;;;;;;;;;;;;;;;;
2022/06/30 17:45:36;;;;;;;;;1.00;1.00;;;;;20.60;52.54;101100.53;6315450;22;73897;-94
2022/06/30 17:48:15;;;;;;;;;;;;;;;;;;;;;
2022/06/30 17:50:42;;;;;;;;;1.50;1.50;;;;;20.55;52.48;101099.97;6277570;22;69989;-94
2022/06/30 17:53:34;;;;;;;;;2.00;2.00;;;;;20.40;51.49;101097.38;6254042;22;45191;-94
2022/06/30 17:56:15;;;;;;;;;;;;;;;;;;;;;
2022/06/30 17:58:56;;;;;;;;;;;;;;;;;;;;;
2022/06/30 18:01:32;;;;;;;;;;;;;;;;;;;;;
2022/06/30 18:04:03;;;;;;;;;1.00;1.00;;;;;20.06;53.91;101107.47;6275178;22;71199;-93
2022/06/30 18:12:12;;;;;;;;;;;;;;;;;;;;;
2022/06/30 18:14:47;;;;;;;;;1.00;0.00;;;;;19.62;51.28;101108.41;6303696;22;71243;-93
2022/06/30 18:17:28;;;;;;;;;;;;;;;;;;;;;
2022/06/30 18:20:13;;;;;;;;;;;;;;;;;;;;;
2022/06/30 18:22:57;;;;;;;;;;;;;;;;;;;;;
2022/06/30 18:28:32;;;;;;;;;1.00;1.00;;;;;19.03;54.03;101136.56;6293247;22;46379;-93
2022/06/30 18:31:10;;;;;;;;;2.00;2.00;;;;;18.97;54.40;101137.75;6260180;22;45617;-93
2022/06/30 18:33:58;;;;;;;;;;;;;;;;;;;;;
2022/06/30 18:36:37;;;;;;;;;;;;;;;;;;;;;
2022/06/30 18:39:34;;;;;;;;;1.00;1.00;;;;;18.83;55.12;101146.47;6279832;22;74884;-93
2022/06/30 18:42:22;;;;;;;;;0.75;0.75;;;;;18.75;55.86;101162.69;6288181;22;45190;-93
2022/06/30 18:44:51;;;;;;;;;1.00;1.00;;;;;18.69;56.34;101170.13;6285478;22;45238;-93
2022/06/30 18:47:26;;;;;;;;;;;;;;;;;;;;;
2022/06/30 18:50:08;;;;;;;;;3.00;0.00;;;;;18.62;53.89;101179.28;6268057;22;75527;-92
2022/06/30 18:52:57;;;;;;;;;0.75;0.75;;;;;18.62;52.83;101176.66;6290091;22;45993;-93
2022/06/30 18:55:40;;;;;;;;;;;;;;;;;;;;;
2022/06/30 18:58:11;;;;;;;;;0.00;0.00;;;;;18.48;53.05;101185.31;6281678;22;70663;-92
2022/06/30 19:00:49;;;;;;;;;;;;;;;;;;;;;
2022/06/30 19:03:42;;;;;;;;;1.25;0.25;;;;;18.42;52.78;101202.31;6271989;22;72129;-92
2022/06/30 19:06:20;;;;;;;;;0.00;0.00;;;;;18.34;53.60;101201.91;6281763;22;45250;-91
2022/06/30 19:08:53;;;;;;;;;0.00;0.00;;;;;18.28;53.80;101208.34;6282327;22;45474;-92
2022/06/30 19:11:29;;;;;;;;;;;;;;;;;;;;;
2022/06/30 19:13:57;;;;;;;;;1.00;1.00;;;;;18.29;53.64;101217.09;6279792;22;74237;-93
2022/06/30 19:16:26;;;;;;;;;0.00;0.00;;;;;18.28;54.67;101213.63;6256508;22;44616;-93
2022/06/30 19:18:57;;;;;;;;;1.00;1.00;;;;;18.17;54.51;101223.88;6288173;22;45558;-93
2022/06/30 19:21:36;;;;;;;;;;;;;;;;;;;;;
2022/06/30 19:24:30;;;;;;;;;1.00;1.00;;;;;18.05;54.48;101233.25;6285221;22;72254;-92
2022/06/30 19:26:58;;;;;;;;;0.50;0.00;;;;;17.98;54.93;101240.66;6288377;22;45220;-92
2022/06/30 19:29:26;;;;;;;;;0.00;0.00;;;;;17.93;55.67;101228.66;6284461;22;45520;-92
2022/06/30 19:31:59;;;;;;;;;0.25;0.25;;;;;17.90;55.58;101245.44;6259233;22;47159;-92
2022/06/30 19:35:29;;;;;;;;;0.00;0.00;;;;;17.87;56.19;101242.16;6312182;22;45463;-92
2022/06/30 19:37:46;;;;;;;;;;;;;;;;;;;;;
2022/06/30 19:40:21;;;;;;;;;0.75;0.00;;;;;17.86;57.76;101235.16;6179452;22;69595;-90
2022/06/30 19:42:47;;;;;;;;;0.00;0.00;;;;;17.78;58.83;101251.34;6278248;22;45426;-88
2022/06/30 19:45:15;;;;;;;;;0.00;0.00;;;;;17.65;59.38;101255.53;6252655;22;45713;-91
2022/06/30 19:47:44;;;;;;;;;0.50;0.50;;;;;17.45;61.04;101252.09;6280166;22;45304;-90
2022/06/30 19:50:12;;;;;;;;;1.75;1.00;;;;;17.28;61.08;101247.66;6284115;22;45329;-90
2022/06/30 19:53:05;;;;;;;;;0.00;0.00;;;;;17.10;62.08;101254.66;6265874;22;47128;-93
2022/06/30 19:55:30;;;;;;;;;2.00;1.00;;;;;16.89;61.43;101255.69;6308645;22;45149;-90
2022/06/30 19:58:07;;;;;;;;;;;;;;;;;;;;;
2022/06/30 20:00:40;;;;;;;;;3.75;1.00;;;;;16.90;61.40;101258.25;6279642;22;69170;-91
2022/06/30 20:06:11;;;;;;;;;2.00;2.00;;;;;16.78;63.41;101274.56;6268032;22;45621;-89
2022/06/30 20:11:31;;;;;;;;;1.00;1.00;;;;;16.66;63.57;101283.88;6223589;22;45196;-91
2022/06/30 20:14:00;;;;;;;;;2.25;1.00;;;;;16.59;63.54;101296.44;6219364;22;45709;-92
2022/06/30 20:16:27;;;;;;;;;1.00;1.00;;;;;16.53;63.54;101295.84;6217837;22;45577;-91
2022/06/30 20:19:09;;;;;;;;;0.75;0.75;;;;;16.56;63.76;101299.19;6218371;22;45174;-91
2022/06/30 20:21:36;;;;;;;;;3.00;1.00;;;;;16.57;64.25;101310.56;6194520;22;45410;-93
2022/06/30 20:24:14;;;;;;;;;;;;;;;;;;;;;
2022/06/30 20:36:04;;;;;;;;;1.00;0.00;;;;;16.58;64.07;101317.53;6287921;22;46907;-95
2022/06/30 20:41:40;;;;;;;;;2.00;0.75;;;;;16.54;64.30;101322.06;6311784;22;44697;-93
2022/06/30 20:44:15;;;;;;;;;2.00;0.00;;;;;16.59;63.68;101327.97;6239177;22;45229;-93
2022/06/30 20:46:50;;;;;;;;;;;;;;;;;;;;;
2022/06/30 20:54:48;;;;;;;;;1.00;1.00;;;;;16.86;64.00;101334.72;6130815;23;45577;-90
2022/06/30 20:57:29;;;;;;;;;1.50;0.75;;;;;16.87;63.60;101339.06;6128070;23;45922;-93
2022/06/30 20:59:59;;;;;;;;;1.00;1.00;;;;;16.88;63.82;101340.75;6129568;23;45550;-91
2022/06/30 21:02:27;;;;;;;;;1.75;0.00;;;;;16.92;64.22;101345.81;6128575;23;45451;-91
2022/06/30 21:05:14;;;;;;;;;;;;;;;;;;;;;
2022/06/30 21:11:17;;;;;;;;;;;;;;;;;;;;;
2022/06/30 21:14:02;;;;;;;;;1.00;1.00;;;;;16.92;63.76;101360.72;6125664;23;68704;-92
2022/06/30 21:23:45;;;;;;;;;;;;;;;;;;;;;
2022/06/30 21:26:38;;;;;;;;;;;;;;;;;;;;;
2022/06/30 21:30:00;;;;;;;;;;;;;;;;;;;;;
2022/06/30 21:33:47;;;;;;;;;;;;;;;;;;;;;
2022/06/30 21:45:44;;;;;;;;;1.00;0.50;;;;;16.41;64.91;101360.31;5972895;23;47039;-93
2022/06/30 21:48:22;;;;;;;;;;;;;;;;;;;;;
2022/06/30 21:51:03;;;;;;;;;;;;;;;;;;;;;
2022/06/30 21:54:08;;;;;;;;;;;;;;;;;;;;;
2022/06/30 21:57:48;;;;;;;;;;;;;;;;;;;;;
2022/06/30 22:03:08;;;;;;;;;2.00;2.00;;;;;16.19;64.98;101355.13;5731803;24;45433;-95
2022/06/30 22:05:49;;;;;;;;;;;;;;;;;;;;;
2022/06/30 22:09:05;;;;;;;;;;;;;;;;;;;;;
2022/06/30 22:11:58;;;;;;;;;;;;;;;;;;;;;
2022/06/30 22:14:44;;;;;;;;;;;;;;;;;;;;;
2022/06/30 22:17:22;;;;;;;;;;;;;;;;;;;;;
2022/06/30 22:29:24;;;;;;;;;1.00;1.00;;;;;15.87;65.02;101373.09;5967960;23;45658;-93
2022/06/30 22:35:46;;;;;;;;;;;;;;;;;;;;;
2022/06/30 22:39:14;;;;;;;;;;;;;;;;;;;;;
2022/06/30 22:42:30;;;;;;;;;;;;;;;;;;;;;
2022/06/30 22:45:28;;;;;;;;;;;;;;;;;;;;;
2022/06/30 22:48:19;;;;;;;;;0.00;0.00;;;;;15.69;64.79;101379.88;6087031;23;73052;-94
2022/06/30 22:54:37;;;;;;;;;;;;;;;;;;;;;
2022/06/30 23:01:16;;;;;;;;;;;;;;;;;;;;;
2022/06/30 23:13:05;;;;;;;;;1.00;1.00;;;;;15.65;65.74;101386.19;5866602;24;45645;-93
2022/06/30 23:19:29;;;;;;;;;;;;;;;;;;;;;
2022/06/30 23:22:50;;;;;;;;;;;;;;;;;;;;;
2022/06/30 23:26:23;;;;;;;;;;;;;;;;;;;;;
2022/06/30 23:29:36;;;;;;;;;;;;;;;;;;;;;
2022/06/30 23:32:32;;;;;;;;;;;;;;;;;;;;;
2022/06/30 23:35:58;;;;;;;;;2.00;1.75;;;;;15.46;65.85;101380.81;5952874;23;73815;-94
2022/06/30 23:38:59;;;;;;;;;;;;;;;;;;;;;
2022/06/30 23:49:30;;;;;;;;;;;;;;;;;;;;;
